Time;durP1;ratioP1;P1;durP2;ratioP2;P2;SDS_P1;SDS_P2;PMS_P1;PMS_P2;Temp;Humidity;BMP_temperature;BMP_pressure;BME280_temperature;BME280_humidity;BME280_pressure;Samples;Min_cycle;Max_cycle;Signal;HPM_P1;HPM_P2
2022/07/05 00:00:18;;;;;;;7.57;3.67;;;15.10;99.90;;;;;;5011751;28;20045;-72
2022/07/05 00:02:43;;;;;;;6.03;3.72;;;15.10;99.90;;;;;;5009512;28;20413;-72
2022/07/05 00:05:09;;;;;;;8.55;3.75;;;15.10;99.90;;;;;;5010958;28;20041;-73
2022/07/05 00:07:35;;;;;;;6.82;3.83;;;15.10;99.90;;;;;;5007720;28;20049;-72
2022/07/05 00:10:02;;;;;;;6.55;3.53;;;15.00;99.90;;;;;;5018309;28;20038;-72
2022/07/05 00:12:31;;;;;;;5.00;3.50;;;15.00;99.90;;;;;;5020038;28;20047;-73
2022/07/05 00:14:58;;;;;;;7.45;3.47;;;15.00;99.90;;;;;;5007284;28;20895;-74
2022/07/05 00:17:23;;;;;;;5.25;3.60;;;15.00;99.90;;;;;;5005248;28;20049;-72
2022/07/05 00:19:49;;;;;;;7.32;4.05;;;15.00;99.90;;;;;;5009302;28;20560;-73
2022/07/05 00:22:15;;;;;;;5.90;3.92;;;14.90;99.90;;;;;;5007821;28;20065;-72
2022/07/05 00:24:40;;;;;;;11.27;5.25;;;14.90;99.90;;;;;;5019462;28;20136;-72
2022/07/05 00:27:06;;;;;;;5.28;3.75;;;14.90;99.90;;;;;;5007080;28;20038;-72
2022/07/05 00:29:32;;;;;;;7.57;3.63;;;14.80;99.90;;;;;;5002911;28;20112;-72
2022/07/05 00:31:57;;;;;;;6.60;4.07;;;14.70;99.90;;;;;;5016200;28;20169;-72
2022/07/05 00:34:23;;;;;;;4.47;3.45;;;14.70;99.90;;;;;;5008983;28;20045;-72
2022/07/05 00:36:49;;;;;;;5.97;3.50;;;14.70;99.90;;;;;;5017005;28;20120;-72
2022/07/05 00:39:15;;;;;;;6.07;3.75;;;14.60;99.90;;;;;;5014178;28;20076;-71
2022/07/05 00:41:41;;;;;;;7.63;3.80;;;14.60;99.90;;;;;;5012484;28;20566;-71
2022/07/05 00:44:09;;;;;;;5.85;3.95;;;14.60;99.90;;;;;;5013369;28;20137;-72
2022/07/05 00:46:36;;;;;;;5.28;4.18;;;14.60;99.90;;;;;;5017966;28;20038;-71
2022/07/05 00:49:02;;;;;;;8.48;4.47;;;14.50;99.90;;;;;;5004100;28;20062;-71
2022/07/05 00:51:34;;;;;;;6.20;4.65;;;14.50;99.90;;;;;;5016703;28;20514;-71
2022/07/05 00:54:00;;;;;;;6.82;4.40;;;14.40;99.90;;;;;;5011874;28;20519;-71
2022/07/05 00:56:26;;;;;;;6.55;4.32;;;14.40;99.90;;;;;;5017971;28;20041;-72
2022/07/05 00:58:53;;;;;;;5.82;4.53;;;14.40;99.90;;;;;;5028783;28;20076;-71
2022/07/05 01:01:19;;;;;;;6.90;4.03;;;14.30;99.90;;;;;;5008633;28;20457;-71
2022/07/05 01:03:45;;;;;;;5.97;3.58;;;14.30;99.90;;;;;;5015332;28;20096;-70
2022/07/05 01:06:12;;;;;;;9.93;3.75;;;14.30;99.90;;;;;;5011196;28;20037;-71
2022/07/05 01:08:40;;;;;;;6.70;3.70;;;14.30;99.90;;;;;;5013919;28;20053;-72
2022/07/05 01:11:08;;;;;;;6.85;4.10;;;14.40;99.90;;;;;;5014922;28;20045;-71
2022/07/05 01:13:34;;;;;;;8.90;4.25;;;14.30;99.90;;;;;;5011814;28;20050;-72
2022/07/05 01:16:01;;;;;;;6.95;3.90;;;14.30;99.90;;;;;;5016379;28;20044;-72
2022/07/05 01:18:27;;;;;;;5.10;4.05;;;14.30;99.90;;;;;;5011858;28;20038;-71
2022/07/05 01:20:53;;;;;;;5.75;4.10;;;14.30;99.90;;;;;;5012336;28;20073;-71
2022/07/05 01:23:20;;;;;;;5.25;4.40;;;14.30;99.90;;;;;;5008605;28;20092;-70
2022/07/05 01:25:49;;;;;;;6.05;4.25;;;14.20;99.90;;;;;;5008065;28;20041;-71
2022/07/05 01:28:15;;;;;;;7.25;4.82;;;14.20;99.90;;;;;;5017545;28;20030;-71
2022/07/05 01:30:42;;;;;;;4.60;4.13;;;14.10;99.90;;;;;;5009662;28;21286;-72
2022/07/05 01:33:09;;;;;;;4.65;4.13;;;14.10;99.90;;;;;;5006213;28;20172;-72
2022/07/05 01:35:35;;;;;;;5.90;4.18;;;14.10;99.90;;;;;;5007613;28;20046;-71
2022/07/05 01:38:01;;;;;;;5.65;4.25;;;14.10;99.90;;;;;;5007275;28;20551;-71
2022/07/05 01:40:27;;;;;;;5.43;4.18;;;14.10;99.90;;;;;;5009743;28;20042;-72
2022/07/05 01:42:53;;;;;;;7.88;4.10;;;14.10;99.90;;;;;;5015148;28;20524;-72
2022/07/05 01:48:07;;;;;;;7.22;4.32;;;14.00;99.90;;;;;;5023086;28;20398;-72
2022/07/05 01:50:47;;;;;;;6.72;4.57;;;14.00;99.90;;;;;;5010465;28;20053;-73
2022/07/05 01:53:21;;;;;;;6.88;4.20;;;14.00;99.90;;;;;;5007909;28;20096;-72
2022/07/05 01:55:47;;;;;;;9.05;4.32;;;13.90;99.90;;;;;;5010238;28;20045;-72
2022/07/05 01:58:13;;;;;;;7.57;4.90;;;13.90;99.90;;;;;;5013565;28;20037;-72
2022/07/05 02:00:46;;;;;;;9.35;4.50;;;13.90;99.90;;;;;;5020703;28;20382;-72
2022/07/05 02:03:12;;;;;;;7.13;4.40;;;13.90;99.90;;;;;;5011851;28;20057;-72
2022/07/05 02:05:39;;;;;;;6.35;3.92;;;13.80;99.90;;;;;;5017832;28;20042;-72
2022/07/05 02:08:05;;;;;;;6.82;4.32;;;13.80;99.90;;;;;;5016139;28;20069;-72
2022/07/05 02:10:30;;;;;;;6.72;4.00;;;13.90;99.90;;;;;;5007962;28;20061;-72
2022/07/05 02:12:56;;;;;;;9.93;4.20;;;13.90;99.90;;;;;;5011723;28;20136;-72
2022/07/05 02:15:21;;;;;;;5.72;3.63;;;13.90;99.90;;;;;;5008341;28;20054;-72
2022/07/05 02:17:47;;;;;;;5.50;3.70;;;13.90;99.90;;;;;;5010640;28;20123;-73
2022/07/05 02:20:13;;;;;;;6.57;3.70;;;13.90;99.90;;;;;;5006139;28;20578;-71
2022/07/05 02:22:39;;;;;;;7.60;3.67;;;13.90;99.90;;;;;;5010284;28;20061;-72
2022/07/05 02:25:05;;;;;;;5.13;3.15;;;14.00;99.90;;;;;;5008733;28;20044;-71
2022/07/05 02:27:31;;;;;;;5.80;3.47;;;14.00;99.90;;;;;;5011079;28;20029;-72
2022/07/05 02:29:56;;;;;;;8.02;3.95;;;13.90;99.90;;;;;;5023383;28;20049;-72
2022/07/05 02:32:22;;;;;;;5.97;3.40;;;13.90;99.90;;;;;;5014899;28;20041;-72
2022/07/05 02:34:48;;;;;;;6.15;3.80;;;13.90;99.90;;;;;;5008533;28;20494;-72
2022/07/05 02:37:13;;;;;;;4.80;4.00;;;13.90;99.90;;;;;;5008289;28;20406;-72
2022/07/05 02:39:39;;;;;;;7.03;4.00;;;13.90;99.90;;;;;;5008519;28;20314;-72
2022/07/05 02:42:05;;;;;;;6.32;3.33;;;13.80;99.90;;;;;;5009051;28;20042;-73
2022/07/05 02:44:30;;;;;;;5.05;3.33;;;13.90;99.90;;;;;;5014103;28;20049;-72
2022/07/05 02:46:56;;;;;;;4.97;3.38;;;13.90;99.90;;;;;;5016639;28;20041;-71
2022/07/05 02:49:21;;;;;;;4.95;3.50;;;13.90;99.90;;;;;;5005122;28;20034;-71
2022/07/05 02:51:47;;;;;;;4.72;3.00;;;13.90;99.90;;;;;;5005316;28;20421;-72
2022/07/05 02:54:13;;;;;;;4.70;3.05;;;14.00;99.90;;;;;;5008059;28;20399;-71
2022/07/05 02:56:38;;;;;;;6.78;3.17;;;14.00;99.90;;;;;;5008163;28;20038;-71
2022/07/05 02:59:05;;;;;;;7.95;3.10;;;14.00;99.90;;;;;;5007053;28;20034;-71
2022/07/05 03:01:31;;;;;;;5.07;2.70;;;14.10;99.90;;;;;;5004086;28;20525;-72
2022/07/05 03:03:58;;;;;;;5.47;2.83;;;14.10;99.90;;;;;;5018290;28;20437;-72
2022/07/05 03:06:24;;;;;;;5.70;2.85;;;14.20;99.90;;;;;;5010084;28;20038;-72
2022/07/05 03:08:50;;;;;;;6.03;3.15;;;14.20;99.90;;;;;;5021313;28;20052;-71
2022/07/05 03:11:15;;;;;;;4.28;3.22;;;14.20;99.90;;;;;;5007321;28;20049;-71
2022/07/05 03:13:42;;;;;;;5.97;3.00;;;14.30;99.90;;;;;;5015544;28;20052;-72
2022/07/05 03:16:07;;;;;;;8.30;3.40;;;14.30;99.90;;;;;;5010477;28;20128;-71
2022/07/05 03:18:33;;;;;;;5.32;2.83;;;14.30;99.90;;;;;;5007490;28;20159;-71
2022/07/05 03:20:58;;;;;;;7.03;2.63;;;14.30;99.90;;;;;;5013897;28;20087;-72
2022/07/05 03:23:24;;;;;;;6.63;3.20;;;14.20;99.90;;;;;;5006804;28;20061;-71
2022/07/05 03:25:50;;;;;;;6.05;2.95;;;14.30;99.90;;;;;;5020871;28;20052;-72
2022/07/05 03:28:15;;;;;;;5.93;2.95;;;14.30;99.90;;;;;;5005857;28;20049;-72
2022/07/05 03:30:41;;;;;;;4.20;2.97;;;14.30;99.90;;;;;;5016409;28;20548;-71
2022/07/05 03:33:06;;;;;;;6.18;3.10;;;14.20;99.90;;;;;;5021138;28;20045;-72
2022/07/05 03:35:32;;;;;;;4.60;2.53;;;14.20;99.90;;;;;;5008554;28;20048;-71
2022/07/05 03:37:58;;;;;;;7.95;3.28;;;14.20;99.90;;;;;;5010068;28;20070;-71
2022/07/05 03:40:23;;;;;;;3.55;2.65;;;14.20;99.90;;;;;;5017999;28;20105;-72
2022/07/05 03:42:49;;;;;;;5.45;2.65;;;14.10;99.90;;;;;;5026226;28;20277;-72
2022/07/05 03:45:15;;;;;;;5.72;2.72;;;14.10;99.90;;;;;;5014557;28;20133;-71
2022/07/05 03:47:40;;;;;;;7.05;2.72;;;14.10;99.90;;;;;;5010586;28;20050;-72
2022/07/05 03:50:06;;;;;;;6.15;2.58;;;14.10;99.90;;;;;;5008986;28;20061;-72
2022/07/05 03:52:32;;;;;;;10.00;2.45;;;14.00;99.90;;;;;;5007545;28;20042;-72
2022/07/05 03:54:58;;;;;;;6.82;2.80;;;14.00;99.90;;;;;;5008014;28;20077;-72
2022/07/05 03:57:23;;;;;;;6.97;3.28;;;14.00;99.90;;;;;;5009111;28;20092;-72
2022/07/05 03:59:49;;;;;;;6.07;2.85;;;14.10;99.90;;;;;;5010000;28;20057;-71
2022/07/05 04:02:15;;;;;;;4.80;2.63;;;14.10;99.90;;;;;;5003854;28;21551;-73
2022/07/05 04:04:40;;;;;;;6.47;2.33;;;14.10;99.90;;;;;;5009482;28;20501;-72
2022/07/05 04:07:06;;;;;;;4.78;2.63;;;14.10;99.90;;;;;;5006396;28;20050;-72
2022/07/05 04:09:32;;;;;;;7.57;3.30;;;14.20;99.90;;;;;;5009243;28;20046;-72
2022/07/05 04:11:58;;;;;;;5.53;2.90;;;14.20;99.90;;;;;;5016928;28;20046;-72
2022/07/05 04:14:24;;;;;;;5.03;2.70;;;14.60;99.90;;;;;;5009601;28;20052;-72
2022/07/05 04:16:49;;;;;;;3.92;2.17;;;15.00;99.90;;;;;;5002927;28;20249;-71
2022/07/05 04:19:16;;;;;;;4.43;2.53;;;15.30;99.90;;;;;;5005814;28;20045;-71
2022/07/05 04:21:41;;;;;;;5.28;2.35;;;15.70;99.90;;;;;;5017053;28;20048;-70
2022/07/05 04:24:07;;;;;;;4.63;2.30;;;16.20;99.90;;;;;;5020466;28;20050;-71
2022/07/05 04:26:33;;;;;;;6.00;2.35;;;16.70;99.90;;;;;;5014743;28;20140;-73
2022/07/05 04:28:59;;;;;;;5.32;2.50;;;17.00;99.90;;;;;;5020033;28;20072;-74
2022/07/05 04:31:24;;;;;;;7.85;2.78;;;17.20;99.90;;;;;;5017396;28;20109;-72
2022/07/05 04:33:50;;;;;;;4.80;2.05;;;17.30;99.90;;;;;;5013535;28;20648;-71
2022/07/05 04:36:16;;;;;;;4.90;2.40;;;17.30;99.90;;;;;;5017576;28;20450;-70
2022/07/05 04:38:41;;;;;;;6.50;2.58;;;16.90;99.90;;;;;;5010748;28;20054;-72
2022/07/05 04:41:07;;;;;;;6.35;2.35;;;16.50;99.90;;;;;;5019170;28;20117;-71
2022/07/05 04:43:34;;;;;;;5.15;2.35;;;16.10;99.90;;;;;;5018044;28;20091;-72
2022/07/05 04:46:00;;;;;;;4.47;2.00;;;15.80;99.90;;;;;;5007788;28;20073;-71
2022/07/05 04:48:25;;;;;;;7.15;1.98;;;15.60;99.90;;;;;;5015256;28;21008;-70
2022/07/05 04:50:51;;;;;;;6.70;1.95;;;15.40;99.90;;;;;;5014945;28;20119;-72
2022/07/05 04:53:17;;;;;;;5.45;2.20;;;15.30;99.90;;;;;;5017432;28;20038;-71
2022/07/05 04:55:42;;;;;;;10.10;2.10;;;15.30;99.90;;;;;;5014385;28;20042;-72
2022/07/05 04:58:08;;;;;;;5.70;1.90;;;15.30;99.90;;;;;;5013162;28;20053;-72
2022/07/05 05:00:34;;;;;;;4.20;1.60;;;15.40;99.90;;;;;;5011144;28;20038;-71
2022/07/05 05:03:00;;;;;;;6.97;1.98;;;15.50;99.90;;;;;;5010456;28;20042;-71
2022/07/05 05:05:25;;;;;;;5.45;1.75;;;15.60;99.90;;;;;;5009097;28;20046;-71
2022/07/05 05:07:51;;;;;;;3.45;1.70;;;15.80;99.90;;;;;;5020051;28;20311;-71
2022/07/05 05:10:17;;;;;;;4.18;1.40;;;15.90;99.90;;;;;;5013439;28;20133;-72
2022/07/05 05:12:42;;;;;;;6.32;1.50;;;16.00;99.90;;;;;;5018696;28;22114;-73
2022/07/05 05:15:09;;;;;;;6.65;1.83;;;16.20;99.90;;;;;;5012427;28;20053;-72
2022/07/05 05:17:43;;;;;;;4.47;1.80;;;16.30;99.90;;;;;;5011968;28;20144;-73
2022/07/05 05:20:17;;;;;;;6.07;1.58;;;16.40;99.90;;;;;;5006997;28;20041;-72
2022/07/05 05:22:43;;;;;;;4.93;1.50;;;16.40;99.90;;;;;;5009176;28;20101;-74
2022/07/05 05:25:09;;;;;;;4.50;1.52;;;16.30;99.90;;;;;;5021357;28;20033;-72
2022/07/05 05:27:41;;;;;;;4.32;1.60;;;16.20;99.90;;;;;;5016852;28;20168;-72
2022/07/05 05:30:07;;;;;;;7.40;1.85;;;16.20;99.90;;;;;;5019802;28;20436;-73
2022/07/05 05:32:33;;;;;;;6.32;1.55;;;16.10;99.90;;;;;;5016419;28;20046;-71
2022/07/05 05:34:58;;;;;;;3.67;1.70;;;16.00;99.90;;;;;;5016025;28;20050;-71
2022/07/05 05:37:24;;;;;;;7.93;1.63;;;15.90;99.90;;;;;;5015723;28;20313;-72
2022/07/05 05:39:49;;;;;;;6.78;1.80;;;15.90;99.90;;;;;;5011558;28;20061;-72
2022/07/05 05:42:15;;;;;;;4.47;1.83;;;16.00;99.90;;;;;;5014519;28;20129;-69
2022/07/05 05:44:41;;;;;;;6.28;1.70;;;16.20;99.90;;;;;;5013638;28;20046;-69
2022/07/05 05:47:06;;;;;;;4.78;1.50;;;16.30;99.90;;;;;;5010927;28;20394;-70
2022/07/05 05:49:32;;;;;;;7.22;1.67;;;16.50;99.90;;;;;;5007876;28;20048;-72
2022/07/05 05:51:58;;;;;;;5.38;1.50;;;16.70;99.90;;;;;;5011314;28;20569;-71
2022/07/05 05:54:23;;;;;;;6.13;1.52;;;16.90;99.90;;;;;;5015531;28;20046;-71
2022/07/05 05:56:49;;;;;;;7.95;1.30;;;17.00;99.90;;;;;;5010207;28;20056;-72
2022/07/05 05:59:14;;;;;;;5.72;1.55;;;17.20;99.90;;;;;;5002523;28;20042;-72
2022/07/05 06:01:40;;;;;;;6.03;1.58;;;17.30;99.90;;;;;;5016929;28;20520;-72
2022/07/05 06:04:06;;;;;;;7.07;1.70;;;17.40;99.90;;;;;;5009005;28;20336;-72
2022/07/05 06:06:31;;;;;;;7.30;1.60;;;17.50;99.90;;;;;;5011812;28;20069;-72
2022/07/05 06:08:57;;;;;;;9.45;2.28;;;17.60;99.90;;;;;;5016780;28;20124;-72
2022/07/05 06:11:22;;;;;;;7.82;1.60;;;17.70;99.90;;;;;;5010905;28;20044;-71
2022/07/05 06:13:48;;;;;;;7.90;1.77;;;17.80;99.90;;;;;;5014442;28;20125;-71
2022/07/05 06:16:14;;;;;;;7.68;1.40;;;17.80;99.90;;;;;;5014015;28;20056;-71
2022/07/05 06:18:39;;;;;;;5.90;1.73;;;17.80;99.90;;;;;;5014060;28;20096;-72
2022/07/05 06:21:05;;;;;;;10.80;1.92;;;17.90;99.90;;;;;;5004468;28;20041;-70
2022/07/05 06:23:31;;;;;;;6.35;1.67;;;18.10;99.90;;;;;;5016496;28;20091;-71
2022/07/05 06:25:56;;;;;;;7.05;1.30;;;18.10;99.90;;;;;;5016323;28;20041;-71
2022/07/05 06:28:22;;;;;;;5.68;1.25;;;18.20;99.90;;;;;;5016483;28;20043;-72
2022/07/05 06:30:47;;;;;;;6.90;1.58;;;18.30;99.90;;;;;;5011162;28;20389;-71
2022/07/05 06:33:13;;;;;;;8.65;1.42;;;18.30;99.90;;;;;;5018774;28;20072;-73
2022/07/05 06:35:39;;;;;;;7.82;1.52;;;18.30;99.90;;;;;;5008481;28;20045;-70
2022/07/05 06:38:07;;;;;;;4.85;1.23;;;18.40;99.90;;;;;;5014457;28;20150;-71
2022/07/05 06:40:34;;;;;;;3.97;1.30;;;18.50;99.90;;;;;;5008574;28;20057;-70
2022/07/05 06:43:02;;;;;;;7.45;1.42;;;18.60;99.90;;;;;;5024712;28;20520;-70
2022/07/05 06:45:28;;;;;;;6.70;1.38;;;18.60;99.90;;;;;;5019221;28;20235;-72
2022/07/05 06:47:55;;;;;;;7.75;1.20;;;18.60;99.90;;;;;;5015421;28;20048;-71
2022/07/05 06:50:21;;;;;;;4.78;1.38;;;18.80;99.90;;;;;;5005617;28;20849;-72
2022/07/05 06:52:47;;;;;;;4.97;1.15;;;18.80;99.90;;;;;;5006477;28;20046;-71
2022/07/05 06:55:12;;;;;;;4.07;0.90;;;18.80;99.90;;;;;;5009932;28;20049;-70
2022/07/05 06:57:38;;;;;;;4.63;1.00;;;18.60;99.90;;;;;;5015816;28;20041;-70
2022/07/05 07:00:05;;;;;;;5.00;1.45;;;18.40;99.90;;;;;;5020334;28;20820;-69
2022/07/05 07:02:30;;;;;;;5.78;1.35;;;18.60;99.90;;;;;;5009617;28;20056;-70
2022/07/05 07:04:56;;;;;;;5.15;1.00;;;18.70;99.90;;;;;;5020521;28;20041;-74
2022/07/05 07:10:06;;;;;;;4.43;1.20;;;18.90;99.90;;;;;;5006942;28;20042;-70
2022/07/05 07:12:33;;;;;;;4.78;1.17;;;19.10;99.90;;;;;;5017530;28;20053;-70
2022/07/05 07:14:59;;;;;;;4.88;1.45;;;19.20;99.90;;;;;;5008579;28;20403;-69
2022/07/05 07:17:24;;;;;;;9.70;1.30;;;19.40;99.90;;;;;;5012759;28;20042;-70
2022/07/05 07:19:50;;;;;;;6.78;1.67;;;19.30;99.90;;;;;;5014038;28;20076;-70
2022/07/05 07:22:16;;;;;;;3.65;1.05;;;19.30;99.90;;;;;;5016767;28;20339;-70
2022/07/05 07:24:42;;;;;;;4.35;1.00;;;19.40;99.90;;;;;;5012134;28;20537;-70
2022/07/05 07:27:08;;;;;;;4.43;1.02;;;19.50;99.90;;;;;;5008461;28;20480;-70
2022/07/05 07:29:39;;;;;;;5.50;1.63;;;19.60;99.90;;;;;;5014957;28;20037;-70
2022/07/05 07:32:05;;;;;;;6.20;1.25;;;19.70;99.90;;;;;;5001826;28;20173;-72
2022/07/05 07:34:31;;;;;;;12.65;1.67;;;19.60;99.90;;;;;;5005913;28;20129;-70
2022/07/05 07:36:58;;;;;;;6.70;1.00;;;19.60;99.90;;;;;;5013711;28;20041;-70
2022/07/05 07:39:25;;;;;;;4.22;1.10;;;19.50;99.90;;;;;;5004566;28;20505;-70
2022/07/05 07:41:50;;;;;;;3.50;0.95;;;19.60;99.90;;;;;;5000449;28;20045;-70
2022/07/05 07:44:16;;;;;;;7.10;1.30;;;19.70;99.90;;;;;;5000870;28;20492;-71
2022/07/05 07:46:42;;;;;;;5.53;1.30;;;19.90;99.90;;;;;;5008104;28;20057;-71
2022/07/05 07:49:09;;;;;;;6.78;2.13;;;20.00;99.90;;;;;;5001746;28;20045;-70
2022/07/05 07:51:35;;;;;;;5.22;1.10;;;20.10;99.90;;;;;;5000746;28;20639;-70
2022/07/05 07:54:00;;;;;;;6.50;1.38;;;20.20;99.90;;;;;;5005063;28;22089;-70
2022/07/05 07:56:26;;;;;;;8.13;1.67;;;20.00;99.90;;;;;;5003929;28;20038;-70
2022/07/05 07:58:53;;;;;;;7.40;1.10;;;20.10;99.90;;;;;;5007054;28;20046;-71
2022/07/05 08:01:18;;;;;;;8.20;1.48;;;20.00;99.90;;;;;;5003920;28;20044;-71
2022/07/05 08:03:44;;;;;;;7.35;1.30;;;20.00;99.90;;;;;;5010821;28;20049;-70
2022/07/05 08:06:12;;;;;;;3.95;1.20;;;20.10;99.90;;;;;;5007978;28;22011;-70
2022/07/05 08:08:38;;;;;;;2.83;0.90;;;20.10;99.90;;;;;;5008723;28;21343;-70
2022/07/05 08:11:05;;;;;;;4.63;1.10;;;20.10;99.90;;;;;;5009898;28;20038;-70
2022/07/05 08:13:31;;;;;;;5.20;1.27;;;20.10;99.90;;;;;;5012105;28;20044;-70
2022/07/05 08:16:00;;;;;;;2.85;0.80;;;20.00;99.90;;;;;;5022769;28;20042;-70
2022/07/05 08:23:55;;;;;;;3.08;1.05;;;19.40;99.90;;;;;;5017482;28;20490;-70
2022/07/05 08:26:21;;;;;;;4.45;1.20;;;19.20;99.90;;;;;;5008486;28;20197;-70
2022/07/05 08:28:47;;;;;;;3.90;1.00;;;19.30;99.90;;;;;;5014268;28;20081;-71
2022/07/05 08:31:13;;;;;;;7.78;1.60;;;19.30;99.90;;;;;;5007930;28;20050;-71
2022/07/05 08:33:38;;;;;;;7.32;1.48;;;19.30;99.90;;;;;;5012954;28;20096;-71
2022/07/05 08:36:04;;;;;;;6.35;1.30;;;19.40;99.90;;;;;;5021256;28;20044;-71
2022/07/05 08:38:30;;;;;;;5.25;1.15;;;19.60;99.90;;;;;;5024747;28;20137;-71
2022/07/05 08:40:57;;;;;;;7.35;1.20;;;19.80;99.90;;;;;;5015959;28;20042;-71
2022/07/05 08:43:24;;;;;;;5.68;1.25;;;20.10;99.90;;;;;;5011336;28;20124;-71
2022/07/05 08:45:52;;;;;;;5.05;1.30;;;20.40;99.90;;;;;;5013389;28;20081;-71
2022/07/05 08:48:20;;;;;;;5.03;1.20;;;20.60;99.90;;;;;;5014193;28;20037;-70
2022/07/05 08:50:48;;;;;;;3.53;1.33;;;20.60;99.90;;;;;;5024317;28;20081;-70
2022/07/05 08:53:18;;;;;;;4.85;1.20;;;20.60;99.90;;;;;;5022857;28;20044;-71
2022/07/05 08:55:45;;;;;;;6.28;1.30;;;20.80;99.90;;;;;;5022745;28;20269;-71
2022/07/05 08:58:11;;;;;;;3.58;1.20;;;20.90;99.90;;;;;;5025428;28;20041;-71
2022/07/05 09:00:41;;;;;;;4.25;1.30;;;20.90;99.90;;;;;;5028274;28;20051;-71
2022/07/05 09:03:07;;;;;;;4.38;1.17;;;21.00;99.90;;;;;;5026118;28;20076;-71
2022/07/05 09:05:42;;;;;;;5.05;1.13;;;21.00;99.30;;;;;;5020393;28;20066;-71
2022/07/05 09:08:12;;;;;;;3.72;1.30;;;21.20;99.80;;;;;;5009880;28;20123;-72
2022/07/05 09:10:42;;;;;;;3.42;1.23;;;21.30;99.50;;;;;;5014630;28;20041;-70
2022/07/05 09:13:08;;;;;;;3.05;1.08;;;21.30;98.70;;;;;;5010074;28;20038;-71
2022/07/05 09:15:49;;;;;;;6.82;1.00;;;21.30;99.80;;;;;;5009730;28;22497;-71
2022/07/05 09:18:41;;;;;;;6.07;1.25;;;20.80;98.60;;;;;;5013899;28;20062;-70
2022/07/05 09:21:24;;;;;;;5.45;1.25;;;20.60;99.90;;;;;;5016304;28;20044;-71
2022/07/05 09:24:00;;;;;;;;;;;20.50;99.90;;;;;;5014547;28;20041;-71
2022/07/05 09:26:44;;;;;;;4.50;1.67;;;20.60;99.90;;;;;;5010398;28;19921;-71
2022/07/05 09:29:15;;;;;;;6.30;1.40;;;20.90;99.90;;;;;;5011531;28;20045;-72
2022/07/05 09:31:46;;;;;;;7.40;1.05;;;21.00;99.90;;;;;;5013020;28;20060;-69
2022/07/05 09:34:16;;;;;;;6.40;1.30;;;21.40;99.90;;;;;;5016398;28;20041;-70
2022/07/05 09:36:58;;;;;;;4.03;1.10;;;21.50;99.90;;;;;;5014690;28;20049;-71
2022/07/05 09:39:30;;;;;;;5.63;1.38;;;21.20;99.90;;;;;;5015318;28;20048;-71
2022/07/05 09:42:25;;;;;;;4.40;1.10;;;20.80;99.90;;;;;;5013161;28;20049;-70
2022/07/05 09:44:52;;;;;;;4.25;1.10;;;20.50;99.90;;;;;;5010944;28;20042;-70
2022/07/05 09:47:23;;;;;;;6.05;1.55;;;20.20;99.90;;;;;;5005857;28;20654;-70
2022/07/05 09:49:53;;;;;;;4.57;1.27;;;20.10;99.90;;;;;;5010757;28;20227;-74
2022/07/05 09:52:30;;;;;;;7.22;1.52;;;19.90;99.90;;;;;;5015633;28;20520;-74
2022/07/05 09:55:16;;;;;;;4.35;1.23;;;19.80;99.90;;;;;;5013821;28;20073;-73
2022/07/05 09:57:43;;;;;;;4.60;1.00;;;19.80;99.90;;;;;;5015318;28;20344;-74
2022/07/05 10:00:20;;;;;;;7.05;1.40;;;20.00;99.90;;;;;;5014862;28;20038;-74
2022/07/05 10:02:51;;;;;;;4.78;1.30;;;20.40;99.90;;;;;;5008717;28;20100;-73
2022/07/05 10:05:18;;;;;;;4.00;0.90;;;20.80;99.90;;;;;;5013344;28;20041;-72
2022/07/05 10:07:54;;;;;;;4.45;1.35;;;20.90;99.90;;;;;;5010373;28;20050;-73
2022/07/05 10:10:38;;;;;;;3.20;1.15;;;20.90;99.70;;;;;;5011524;28;20077;-73
2022/07/05 10:13:07;;;;;;;3.78;1.10;;;21.10;99.90;;;;;;5011284;28;20053;-73
2022/07/05 10:15:36;;;;;;;4.85;1.27;;;21.30;99.90;;;;;;5016888;28;20037;-75
2022/07/05 10:18:14;;;;;;;6.82;1.02;;;21.60;99.60;;;;;;5017542;28;20030;-72
2022/07/05 10:20:44;;;;;;;3.60;0.85;;;21.80;98.10;;;;;;5015902;28;20034;-73
2022/07/05 10:23:15;;;;;;;3.92;1.08;;;22.00;99.10;;;;;;5007633;28;20570;-74
2022/07/05 10:25:44;;;;;;;5.30;1.05;;;22.10;98.60;;;;;;5012922;28;20049;-75
2022/07/05 10:28:10;;;;;;;5.60;1.23;;;22.10;98.40;;;;;;4997775;28;20049;-75
2022/07/05 10:30:37;;;;;;;4.03;1.00;;;21.70;98.40;;;;;;5011527;28;20049;-75
2022/07/05 10:33:05;;;;;;;3.97;1.10;;;21.40;98.60;;;;;;5008276;28;20178;-74
2022/07/05 10:35:31;;;;;;;3.58;1.10;;;21.40;99.30;;;;;;5019634;28;20041;-74
2022/07/05 10:37:59;;;;;;;3.00;1.10;;;21.60;99.30;;;;;;5016313;28;20148;-74
2022/07/05 10:40:26;;;;;;;4.53;1.58;;;21.90;99.40;;;;;;5019326;28;20104;-75
2022/07/05 10:42:56;;;;;;;6.03;1.10;;;22.00;98.40;;;;;;5011978;28;20109;-75
2022/07/05 10:45:25;;;;;;;4.28;1.10;;;21.90;97.70;;;;;;5022059;28;20049;-74
2022/07/05 10:48:10;;;;;;;5.45;1.30;;;21.80;98.20;;;;;;5016325;28;20379;-74
2022/07/05 10:50:59;;;;;;;3.58;1.20;;;21.60;99.00;;;;;;5013377;28;20493;-75
2022/07/05 10:53:26;;;;;;;4.20;1.00;;;21.50;99.60;;;;;;5015716;28;20096;-74
2022/07/05 10:56:18;;;;;;;5.25;1.20;;;21.50;99.90;;;;;;5010033;28;20048;-78
2022/07/05 10:58:45;;;;;;;7.03;1.45;;;21.40;99.90;;;;;;5012717;28;20374;-73
2022/07/05 11:01:19;;;;;;;6.03;1.42;;;21.30;99.90;;;;;;5008181;28;20077;-75
2022/07/05 11:03:52;;;;;;;5.13;1.50;;;21.10;99.90;;;;;;5008564;28;20054;-74
2022/07/05 11:06:25;;;;;;;5.43;1.20;;;21.10;99.90;;;;;;5007477;28;20045;-75
2022/07/05 11:08:57;;;;;;;3.22;1.17;;;21.00;99.90;;;;;;5006134;28;20061;-74
2022/07/05 11:11:27;;;;;;;6.27;1.13;;;20.90;99.90;;;;;;5008325;28;20104;-75
2022/07/05 11:13:55;;;;;;;6.70;1.27;;;20.80;99.90;;;;;;5011638;28;20041;-75
2022/07/05 11:16:22;;;;;;;7.00;1.38;;;20.80;99.90;;;;;;5011359;28;20389;-72
2022/07/05 11:19:03;;;;;;;3.47;1.20;;;20.60;99.90;;;;;;5004316;28;21745;-73
2022/07/05 11:21:29;;;;;;;4.82;1.10;;;20.50;99.90;;;;;;5009699;28;20094;-73
2022/07/05 11:24:22;;;;;;;4.13;1.30;;;20.40;99.90;;;;;;5010358;28;21010;-80
2022/07/05 11:26:50;;;;;;;6.18;0.95;;;20.30;99.90;;;;;;5015327;28;20132;-73
2022/07/05 11:29:51;;;;;;;4.35;1.08;;;20.20;99.50;;;;;;5007603;28;20082;-74
2022/07/05 11:32:18;;;;;;;5.75;1.23;;;20.20;99.60;;;;;;4934050;28;20106;-73
2022/07/05 11:34:46;;;;;;;6.53;1.20;;;20.30;99.80;;;;;;4991831;28;20444;-74
2022/07/05 11:37:23;;;;;;;6.40;1.17;;;20.40;99.70;;;;;;5015381;28;20096;-74
2022/07/05 11:40:11;;;;;;;4.53;1.35;;;20.50;99.50;;;;;;5007418;28;20053;-74
2022/07/05 11:42:45;;;;;;;5.32;1.27;;;20.50;99.40;;;;;;5018528;28;20060;-75
2022/07/05 11:45:12;;;;;;;7.13;1.20;;;20.60;99.80;;;;;;5018603;28;20415;-75
2022/07/05 11:47:39;;;;;;;3.50;1.50;;;20.70;99.90;;;;;;5032209;28;20380;-76
2022/07/05 11:50:07;;;;;;;3.45;1.30;;;20.80;99.60;;;;;;5008394;28;20493;-76
2022/07/05 11:52:34;;;;;;;4.30;1.27;;;21.00;99.70;;;;;;5019074;28;20096;-76
2022/07/05 11:55:01;;;;;;;3.80;1.20;;;21.10;99.50;;;;;;5010178;28;22695;-77
2022/07/05 11:57:27;;;;;;;5.30;1.25;;;21.00;99.10;;;;;;5013845;28;20612;-76
2022/07/05 11:59:53;;;;;;;3.40;1.02;;;20.90;99.00;;;;;;5012094;28;20151;-76
2022/07/05 12:02:19;;;;;;;4.32;1.20;;;20.90;99.10;;;;;;5012400;28;20053;-76
2022/07/05 12:04:53;;;;;;;3.60;1.40;;;20.90;99.40;;;;;;5015001;28;20107;-77
2022/07/05 12:07:30;;;;;;;9.70;1.70;;;20.80;99.20;;;;;;5009116;28;20038;-76
2022/07/05 12:12:44;;;;;;;5.75;1.48;;;20.80;99.90;;;;;;5003457;28;20486;-73
2022/07/05 12:15:15;;;;;;;3.70;1.30;;;20.80;99.90;;;;;;4999649;28;20046;-73
2022/07/05 12:17:43;;;;;;;3.67;1.10;;;20.70;99.70;;;;;;5008925;28;20045;-72
2022/07/05 12:20:14;;;;;;;6.30;1.10;;;20.70;99.30;;;;;;4998907;28;20050;-74
2022/07/05 12:22:42;;;;;;;5.72;1.23;;;20.60;99.30;;;;;;5008416;28;20034;-73
2022/07/05 12:25:20;;;;;;;3.90;1.38;;;20.60;99.60;;;;;;5018119;28;20324;-73
2022/07/05 12:27:50;;;;;;;3.78;1.20;;;20.70;99.40;;;;;;5020047;28;20045;-73
2022/07/05 12:30:16;;;;;;;5.20;1.58;;;20.70;99.60;;;;;;5008145;28;20073;-72
2022/07/05 12:33:01;;;;;;;5.82;1.40;;;20.90;99.60;;;;;;5010746;28;20049;-72
2022/07/05 12:35:33;;;;;;;5.07;1.48;;;21.20;99.70;;;;;;5016853;28;20046;-73
2022/07/05 12:38:03;;;;;;;3.83;1.15;;;21.20;99.70;;;;;;5009330;28;20508;-72
2022/07/05 12:40:29;;;;;;;7.25;1.25;;;21.10;99.50;;;;;;5012577;28;20172;-73
2022/07/05 12:43:21;;;;;;;4.00;1.40;;;21.00;99.50;;;;;;5012876;28;20129;-73
2022/07/05 12:46:04;;;;;;;3.67;1.00;;;21.00;99.30;;;;;;5011495;28;20054;-73
2022/07/05 12:48:34;;;;;;;;;;;21.00;99.30;;;;;;5009988;28;20446;-74
2022/07/05 12:51:00;;;;;;;4.53;1.17;;;21.00;99.60;;;;;;5012362;28;19961;-73
2022/07/05 12:58:59;;;;;;;4.30;0.90;;;20.50;98.50;;;;;;5012734;28;20296;-76
2022/07/05 13:01:42;;;;;;;3.55;1.30;;;20.40;98.70;;;;;;5012159;28;20194;-75
2022/07/05 13:04:15;;;;;;;5.05;1.65;;;20.30;99.10;;;;;;5009612;28;20498;-74
2022/07/05 13:06:45;;;;;;;4.28;1.08;;;20.30;99.00;;;;;;5012681;28;20470;-75
2022/07/05 13:09:12;;;;;;;5.97;1.30;;;20.60;98.70;;;;;;5012344;28;20428;-75
2022/07/05 13:11:38;;;;;;;4.25;1.08;;;20.90;99.30;;;;;;5005118;28;20045;-75